sensor_id;sensor_type;location;lat;lon;timestamp;P1;durP1;ratioP1;P2;durP2;ratioP2
46713;SDS011;32445;51.376;10.874;2022-09-12T00:02:51;5.50;;;5.07;;
46713;SDS011;32445;51.376;10.874;2022-09-12T00:05:52;6.10;;;5.70;;
46713;SDS011;32445;51.376;10.874;2022-09-12T00:08:53;5.60;;;5.10;;
46713;SDS011;32445;51.376;10.874;2022-09-12T00:11:55;6.70;;;6.10;;
46713;SDS011;32445;51.376;10.874;2022-09-12T00:14:55;8.53;;;5.97;;
46713;SDS011;32445;51.376;10.874;2022-09-12T00:17:56;4.80;;;4.40;;
46713;SDS011;32445;51.376;10.874;2022-09-12T00:20:56;5.10;;;4.50;;
46713;SDS011;32445;51.376;10.874;2022-09-12T00:23:57;5.70;;;5.20;;
46713;SDS011;32445;51.376;10.874;2022-09-12T00:26:57;5.07;;;4.57;;
46713;SDS011;32445;51.376;10.874;2022-09-12T00:29:57;5.77;;;5.27;;
46713;SDS011;32445;51.376;10.874;2022-09-12T00:32:58;5.37;;;4.03;;
46713;SDS011;32445;51.376;10.874;2022-09-12T00:35:58;6.53;;;4.80;;
46713;SDS011;32445;51.376;10.874;2022-09-12T00:38:58;5.47;;;5.07;;
46713;SDS011;32445;51.376;10.874;2022-09-12T00:41:59;4.70;;;4.40;;
46713;SDS011;32445;51.376;10.874;2022-09-12T00:44:59;6.83;;;4.83;;
46713;SDS011;32445;51.376;10.874;2022-09-12T00:48:00;6.97;;;4.47;;
46713;SDS011;32445;51.376;10.874;2022-09-12T00:51:03;5.68;;;5.18;;
46713;SDS011;32445;51.376;10.874;2022-09-12T00:54:05;6.30;;;5.70;;
46713;SDS011;32445;51.376;10.874;2022-09-12T00:57:09;6.72;;;6.13;;
46713;SDS011;32445;51.376;10.874;2022-09-12T01:00:14;6.65;;;5.60;;
46713;SDS011;32445;51.376;10.874;2022-09-12T01:03:18;6.97;;;5.82;;
46713;SDS011;32445;51.376;10.874;2022-09-12T01:06:26;7.47;;;6.88;;
46713;SDS011;32445;51.376;10.874;2022-09-12T01:09:29;6.68;;;6.07;;
46713;SDS011;32445;51.376;10.874;2022-09-12T01:12:30;10.03;;;6.97;;
46713;SDS011;32445;51.376;10.874;2022-09-12T01:28:58;6.82;;;6.15;;
46713;SDS011;32445;51.376;10.874;2022-09-12T01:41:51;7.55;;;6.85;;
46713;SDS011;32445;51.376;10.874;2022-09-12T01:45:15;9.05;;;8.27;;
46713;SDS011;32445;51.376;10.874;2022-09-12T01:51:20;10.40;;;9.23;;
46713;SDS011;32445;51.376;10.874;2022-09-12T01:54:28;17.40;;;8.55;;
46713;SDS011;32445;51.376;10.874;2022-09-12T01:57:51;64.63;;;10.02;;
46713;SDS011;32445;51.376;10.874;2022-09-12T02:01:12;13.65;;;7.95;;
46713;SDS011;32445;51.376;10.874;2022-09-12T02:04:17;15.25;;;7.13;;
46713;SDS011;32445;51.376;10.874;2022-09-12T02:07:24;7.82;;;7.07;;
46713;SDS011;32445;51.376;10.874;2022-09-12T02:10:29;6.93;;;6.45;;
46713;SDS011;32445;51.376;10.874;2022-09-12T02:23:11;5.13;;;4.40;;
46713;SDS011;32445;51.376;10.874;2022-09-12T02:26:19;4.75;;;4.45;;
46713;SDS011;32445;51.376;10.874;2022-09-12T02:29:22;4.00;;;3.78;;
46713;SDS011;32445;51.376;10.874;2022-09-12T02:32:26;3.50;;;3.20;;
46713;SDS011;32445;51.376;10.874;2022-09-12T02:39:00;3.67;;;3.47;;
46713;SDS011;32445;51.376;10.874;2022-09-12T02:42:00;4.70;;;4.37;;
46713;SDS011;32445;51.376;10.874;2022-09-12T02:45:03;5.43;;;5.10;;
46713;SDS011;32445;51.376;10.874;2022-09-12T02:51:10;5.30;;;4.80;;
46713;SDS011;32445;51.376;10.874;2022-09-12T02:54:11;5.68;;;5.15;;
46713;SDS011;32445;51.376;10.874;2022-09-12T02:57:16;5.78;;;5.28;;
46713;SDS011;32445;51.376;10.874;2022-09-12T03:00:17;7.07;;;5.20;;
46713;SDS011;32445;51.376;10.874;2022-09-12T03:07:12;5.90;;;5.50;;
46713;SDS011;32445;51.376;10.874;2022-09-12T03:10:42;6.30;;;5.90;;
46713;SDS011;32445;51.376;10.874;2022-09-12T03:17:25;6.20;;;5.70;;
46713;SDS011;32445;51.376;10.874;2022-09-12T03:23:51;6.38;;;5.95;;
46713;SDS011;32445;51.376;10.874;2022-09-12T03:27:11;5.85;;;5.45;;
46713;SDS011;32445;51.376;10.874;2022-09-12T03:30:16;20.23;;;7.18;;
46713;SDS011;32445;51.376;10.874;2022-09-12T03:33:17;5.17;;;4.77;;
46713;SDS011;32445;51.376;10.874;2022-09-12T03:36:23;4.82;;;4.25;;
46713;SDS011;32445;51.376;10.874;2022-09-12T03:39:25;5.47;;;3.95;;
46713;SDS011;32445;51.376;10.874;2022-09-12T03:42:26;3.47;;;3.20;;
46713;SDS011;32445;51.376;10.874;2022-09-12T03:45:27;4.10;;;3.77;;
46713;SDS011;32445;51.376;10.874;2022-09-12T03:48:27;4.67;;;4.37;;
46713;SDS011;32445;51.376;10.874;2022-09-12T03:51:27;3.47;;;3.27;;
46713;SDS011;32445;51.376;10.874;2022-09-12T03:54:28;6.60;;;4.80;;
46713;SDS011;32445;51.376;10.874;2022-09-12T03:57:28;22.70;;;5.60;;
46713;SDS011;32445;51.376;10.874;2022-09-12T04:00:28;6.13;;;3.93;;
46713;SDS011;32445;51.376;10.874;2022-09-12T04:03:29;25.73;;;5.47;;
46713;SDS011;32445;51.376;10.874;2022-09-12T04:06:29;10.77;;;5.03;;
46713;SDS011;32445;51.376;10.874;2022-09-12T04:09:30;4.40;;;4.10;;
46713;SDS011;32445;51.376;10.874;2022-09-12T04:12:30;4.50;;;4.20;;
46713;SDS011;32445;51.376;10.874;2022-09-12T04:15:30;9.93;;;4.83;;
46713;SDS011;32445;51.376;10.874;2022-09-12T04:18:31;5.47;;;5.07;;
46713;SDS011;32445;51.376;10.874;2022-09-12T04:21:32;14.30;;;6.17;;
46713;SDS011;32445;51.376;10.874;2022-09-12T04:24:32;8.03;;;5.27;;
46713;SDS011;32445;51.376;10.874;2022-09-12T04:27:33;7.30;;;6.43;;
46713;SDS011;32445;51.376;10.874;2022-09-12T04:30:33;6.87;;;6.27;;
46713;SDS011;32445;51.376;10.874;2022-09-12T04:33:34;84.83;;;10.30;;
46713;SDS011;32445;51.376;10.874;2022-09-12T04:36:35;8.15;;;6.30;;
46713;SDS011;32445;51.376;10.874;2022-09-12T04:39:36;9.55;;;6.75;;
46713;SDS011;32445;51.376;10.874;2022-09-12T04:42:36;15.13;;;7.67;;
46713;SDS011;32445;51.376;10.874;2022-09-12T04:45:36;26.60;;;8.03;;
46713;SDS011;32445;51.376;10.874;2022-09-12T04:48:37;9.70;;;7.63;;
46713;SDS011;32445;51.376;10.874;2022-09-12T04:51:39;7.97;;;7.07;;
46713;SDS011;32445;51.376;10.874;2022-09-12T04:57:40;7.40;;;6.70;;
46713;SDS011;32445;51.376;10.874;2022-09-12T05:00:40;6.53;;;5.97;;
46713;SDS011;32445;51.376;10.874;2022-09-12T05:03:41;5.93;;;5.40;;
46713;SDS011;32445;51.376;10.874;2022-09-12T05:06:42;8.77;;;6.10;;
46713;SDS011;32445;51.376;10.874;2022-09-12T05:09:43;5.90;;;5.50;;
46713;SDS011;32445;51.376;10.874;2022-09-12T05:12:44;6.17;;;5.73;;
46713;SDS011;32445;51.376;10.874;2022-09-12T05:15:52;11.63;;;6.70;;
46713;SDS011;32445;51.376;10.874;2022-09-12T05:18:54;7.10;;;6.53;;
46713;SDS011;32445;51.376;10.874;2022-09-12T05:21:56;6.80;;;6.30;;
46713;SDS011;32445;51.376;10.874;2022-09-12T05:24:56;17.73;;;9.03;;
46713;SDS011;32445;51.376;10.874;2022-09-12T05:27:57;12.23;;;7.03;;
46713;SDS011;32445;51.376;10.874;2022-09-12T05:31:10;16.13;;;6.80;;
46713;SDS011;32445;51.376;10.874;2022-09-12T05:34:17;40.20;;;8.15;;
46713;SDS011;32445;51.376;10.874;2022-09-12T05:37:18;10.52;;;7.18;;
46713;SDS011;32445;51.376;10.874;2022-09-12T05:40:19;14.87;;;6.60;;
46713;SDS011;32445;51.376;10.874;2022-09-12T05:43:20;6.73;;;5.93;;
46713;SDS011;32445;51.376;10.874;2022-09-12T05:46:21;6.40;;;5.43;;
46713;SDS011;32445;51.376;10.874;2022-09-12T05:49:24;7.35;;;5.90;;
46713;SDS011;32445;51.376;10.874;2022-09-12T05:52:24;6.33;;;5.93;;
46713;SDS011;32445;51.376;10.874;2022-09-12T05:55:25;11.80;;;5.60;;
46713;SDS011;32445;51.376;10.874;2022-09-12T05:58:25;57.90;;;7.23;;
46713;SDS011;32445;51.376;10.874;2022-09-12T06:01:26;18.97;;;6.87;;
46713;SDS011;32445;51.376;10.874;2022-09-12T06:07:28;51.47;;;9.32;;
46713;SDS011;32445;51.376;10.874;2022-09-12T06:10:28;59.67;;;9.17;;
46713;SDS011;32445;51.376;10.874;2022-09-12T06:13:32;68.80;;;9.83;;
46713;SDS011;32445;51.376;10.874;2022-09-12T06:16:34;19.35;;;6.68;;
46713;SDS011;32445;51.376;10.874;2022-09-12T06:19:34;14.00;;;6.22;;
46713;SDS011;32445;51.376;10.874;2022-09-12T06:22:35;25.47;;;8.57;;
46713;SDS011;32445;51.376;10.874;2022-09-12T06:25:35;28.37;;;9.47;;
46713;SDS011;32445;51.376;10.874;2022-09-12T06:28:36;15.40;;;7.23;;
46713;SDS011;32445;51.376;10.874;2022-09-12T06:31:39;12.32;;;8.07;;
46713;SDS011;32445;51.376;10.874;2022-09-12T06:34:40;112.95;;;12.27;;
46713;SDS011;32445;51.376;10.874;2022-09-12T06:37:42;14.77;;;7.27;;
46713;SDS011;32445;51.376;10.874;2022-09-12T06:40:43;129.50;;;12.02;;
46713;SDS011;32445;51.376;10.874;2022-09-12T06:43:43;6.30;;;5.90;;
46713;SDS011;32445;51.376;10.874;2022-09-12T06:46:44;11.43;;;7.40;;
46713;SDS011;32445;51.376;10.874;2022-09-12T06:49:44;19.87;;;7.87;;
46713;SDS011;32445;51.376;10.874;2022-09-12T06:52:47;13.07;;;10.33;;
46713;SDS011;32445;51.376;10.874;2022-09-12T06:55:53;16.33;;;9.20;;
46713;SDS011;32445;51.376;10.874;2022-09-12T06:58:58;9.93;;;9.23;;
46713;SDS011;32445;51.376;10.874;2022-09-12T07:01:58;7.07;;;6.67;;
46713;SDS011;32445;51.376;10.874;2022-09-12T07:04:58;9.53;;;8.93;;
46713;SDS011;32445;51.376;10.874;2022-09-12T07:07:59;9.77;;;8.87;;
46713;SDS011;32445;51.376;10.874;2022-09-12T07:11:07;8.23;;;7.70;;
46713;SDS011;32445;51.376;10.874;2022-09-12T07:14:15;9.80;;;9.07;;
46713;SDS011;32445;51.376;10.874;2022-09-12T07:17:15;8.57;;;7.97;;
46713;SDS011;32445;51.376;10.874;2022-09-12T07:20:16;9.80;;;9.00;;
46713;SDS011;32445;51.376;10.874;2022-09-12T07:23:16;10.27;;;9.37;;
46713;SDS011;32445;51.376;10.874;2022-09-12T07:26:16;6.40;;;5.90;;
46713;SDS011;32445;51.376;10.874;2022-09-12T07:29:17;7.60;;;7.10;;
46713;SDS011;32445;51.376;10.874;2022-09-12T07:32:17;10.47;;;9.77;;
46713;SDS011;32445;51.376;10.874;2022-09-12T07:35:18;124.17;;;24.63;;
46713;SDS011;32445;51.376;10.874;2022-09-12T07:38:20;29.23;;;12.40;;
46713;SDS011;32445;51.376;10.874;2022-09-12T07:41:22;10.53;;;9.40;;
46713;SDS011;32445;51.376;10.874;2022-09-12T07:44:24;10.77;;;9.73;;
46713;SDS011;32445;51.376;10.874;2022-09-12T07:47:25;11.38;;;10.27;;
46713;SDS011;32445;51.376;10.874;2022-09-12T07:50:26;9.97;;;9.27;;
46713;SDS011;32445;51.376;10.874;2022-09-12T07:53:30;7.23;;;6.60;;
46713;SDS011;32445;51.376;10.874;2022-09-12T07:56:32;10.70;;;9.98;;
46713;SDS011;32445;51.376;10.874;2022-09-12T07:59:33;9.93;;;9.13;;
46713;SDS011;32445;51.376;10.874;2022-09-12T08:02:33;8.43;;;7.73;;
46713;SDS011;32445;51.376;10.874;2022-09-12T08:05:33;9.47;;;8.77;;
46713;SDS011;32445;51.376;10.874;2022-09-12T08:08:34;10.90;;;10.03;;
46713;SDS011;32445;51.376;10.874;2022-09-12T08:11:35;10.25;;;9.35;;
46713;SDS011;32445;51.376;10.874;2022-09-12T08:14:35;11.93;;;10.87;;
46713;SDS011;32445;51.376;10.874;2022-09-12T08:17:35;9.63;;;8.93;;
46713;SDS011;32445;51.376;10.874;2022-09-12T08:20:36;9.93;;;9.13;;
46713;SDS011;32445;51.376;10.874;2022-09-12T08:23:36;9.67;;;8.97;;
46713;SDS011;32445;51.376;10.874;2022-09-12T08:26:37;9.90;;;9.03;;
46713;SDS011;32445;51.376;10.874;2022-09-12T08:29:37;9.17;;;8.47;;
46713;SDS011;32445;51.376;10.874;2022-09-12T08:32:37;8.43;;;7.83;;
46713;SDS011;32445;51.376;10.874;2022-09-12T08:35:38;10.40;;;9.50;;
46713;SDS011;32445;51.376;10.874;2022-09-12T08:38:39;8.43;;;7.67;;
46713;SDS011;32445;51.376;10.874;2022-09-12T08:41:44;10.02;;;6.63;;
46713;SDS011;32445;51.376;10.874;2022-09-12T08:44:49;7.95;;;7.25;;
46713;SDS011;32445;51.376;10.874;2022-09-12T08:48:17;7.13;;;6.43;;
46713;SDS011;32445;51.376;10.874;2022-09-12T08:51:18;6.40;;;5.90;;
46713;SDS011;32445;51.376;10.874;2022-09-12T08:54:24;7.75;;;5.80;;
46713;SDS011;32445;51.376;10.874;2022-09-12T08:57:27;6.22;;;5.63;;
46713;SDS011;32445;51.376;10.874;2022-09-12T09:00:31;6.30;;;4.93;;
46713;SDS011;32445;51.376;10.874;2022-09-12T09:10:07;7.38;;;5.03;;
46713;SDS011;32445;51.376;10.874;2022-09-12T09:13:25;5.90;;;5.40;;
46713;SDS011;32445;51.376;10.874;2022-09-12T09:16:54;5.90;;;4.45;;
46713;SDS011;32445;51.376;10.874;2022-09-12T09:23:12;5.03;;;2.97;;
46713;SDS011;32445;51.376;10.874;2022-09-12T09:26:32;6.50;;;4.13;;
46713;SDS011;32445;51.376;10.874;2022-09-12T09:29:42;4.03;;;3.63;;
46713;SDS011;32445;51.376;10.874;2022-09-12T09:32:51;4.40;;;3.97;;
46713;SDS011;32445;51.376;10.874;2022-09-12T09:35:59;3.10;;;2.83;;
46713;SDS011;32445;51.376;10.874;2022-09-12T09:39:05;2.92;;;2.47;;
46713;SDS011;32445;51.376;10.874;2022-09-12T09:42:39;3.10;;;2.65;;
46713;SDS011;32445;51.376;10.874;2022-09-12T09:45:44;2.65;;;2.30;;
46713;SDS011;32445;51.376;10.874;2022-09-12T09:48:46;1.60;;;1.50;;
46713;SDS011;32445;51.376;10.874;2022-09-12T09:51:48;1.17;;;1.00;;
46713;SDS011;32445;51.376;10.874;2022-09-12T09:54:58;2.00;;;1.83;;
46713;SDS011;32445;51.376;10.874;2022-09-12T09:58:00;1.75;;;1.42;;
46713;SDS011;32445;51.376;10.874;2022-09-12T10:01:03;2.30;;;1.98;;
46713;SDS011;32445;51.376;10.874;2022-09-12T10:04:30;4.15;;;1.83;;
46713;SDS011;32445;51.376;10.874;2022-09-12T10:07:35;3.10;;;2.03;;
46713;SDS011;32445;51.376;10.874;2022-09-12T10:10:35;2.27;;;1.80;;
46713;SDS011;32445;51.376;10.874;2022-09-12T10:13:37;1.80;;;1.50;;
46713;SDS011;32445;51.376;10.874;2022-09-12T10:16:49;3.75;;;1.65;;
46713;SDS011;32445;51.376;10.874;2022-09-12T10:19:54;2.03;;;1.80;;
46713;SDS011;32445;51.376;10.874;2022-09-12T10:22:56;3.97;;;2.33;;
46713;SDS011;32445;51.376;10.874;2022-09-12T10:25:59;2.65;;;2.45;;
46713;SDS011;32445;51.376;10.874;2022-09-12T10:29:04;2.03;;;1.85;;
46713;SDS011;32445;51.376;10.874;2022-09-12T10:32:11;1.67;;;1.50;;
46713;SDS011;32445;51.376;10.874;2022-09-12T10:35:22;3.58;;;1.60;;
46713;SDS011;32445;51.376;10.874;2022-09-12T10:38:27;2.63;;;1.60;;
46713;SDS011;32445;51.376;10.874;2022-09-12T10:41:37;2.63;;;1.70;;
46713;SDS011;32445;51.376;10.874;2022-09-12T10:44:40;3.45;;;1.67;;
46713;SDS011;32445;51.376;10.874;2022-09-12T10:47:54;2.25;;;1.90;;
46713;SDS011;32445;51.376;10.874;2022-09-12T10:50:57;3.47;;;2.10;;
46713;SDS011;32445;51.376;10.874;2022-09-12T10:54:00;3.75;;;2.30;;
46713;SDS011;32445;51.376;10.874;2022-09-12T11:00:20;2.78;;;1.88;;
46713;SDS011;32445;51.376;10.874;2022-09-12T11:03:37;1.98;;;1.88;;
46713;SDS011;32445;51.376;10.874;2022-09-12T11:06:51;2.15;;;1.85;;
46713;SDS011;32445;51.376;10.874;2022-09-12T11:16:29;4.87;;;2.67;;
46713;SDS011;32445;51.376;10.874;2022-09-12T11:19:43;2.78;;;1.88;;
46713;SDS011;32445;51.376;10.874;2022-09-12T11:35:55;1.95;;;1.52;;
46713;SDS011;32445;51.376;10.874;2022-09-12T11:39:00;2.45;;;2.25;;
46713;SDS011;32445;51.376;10.874;2022-09-12T11:42:01;4.07;;;2.13;;
46713;SDS011;32445;51.376;10.874;2022-09-12T11:45:11;5.07;;;2.47;;
46713;SDS011;32445;51.376;10.874;2022-09-12T11:48:25;2.08;;;1.88;;
46713;SDS011;32445;51.376;10.874;2022-09-12T11:55:05;2.10;;;1.60;;
46713;SDS011;32445;51.376;10.874;2022-09-12T11:58:16;1.85;;;1.55;;
46713;SDS011;32445;51.376;10.874;2022-09-12T12:01:31;1.58;;;1.48;;
46713;SDS011;32445;51.376;10.874;2022-09-12T12:04:39;1.50;;;1.38;;
46713;SDS011;32445;51.376;10.874;2022-09-12T12:07:53;1.80;;;1.40;;
46713;SDS011;32445;51.376;10.874;2022-09-12T12:10:56;3.33;;;1.52;;
46713;SDS011;32445;51.376;10.874;2022-09-12T12:14:00;1.80;;;1.23;;
46713;SDS011;32445;51.376;10.874;2022-09-12T12:17:23;3.35;;;1.48;;
46713;SDS011;32445;51.376;10.874;2022-09-12T12:20:25;2.70;;;1.50;;
46713;SDS011;32445;51.376;10.874;2022-09-12T12:23:30;1.58;;;1.35;;
46713;SDS011;32445;51.376;10.874;2022-09-12T12:26:44;2.83;;;1.50;;
46713;SDS011;32445;51.376;10.874;2022-09-12T12:29:56;1.65;;;1.15;;
46713;SDS011;32445;51.376;10.874;2022-09-12T12:48:45;1.80;;;1.37;;
46713;SDS011;32445;51.376;10.874;2022-09-12T12:54:56;2.75;;;1.27;;
46713;SDS011;32445;51.376;10.874;2022-09-12T12:57:59;3.65;;;1.67;;
46713;SDS011;32445;51.376;10.874;2022-09-12T13:01:12;2.17;;;1.25;;
46713;SDS011;32445;51.376;10.874;2022-09-12T13:04:17;1.67;;;1.27;;
46713;SDS011;32445;51.376;10.874;2022-09-12T13:07:26;3.03;;;1.17;;
46713;SDS011;32445;51.376;10.874;2022-09-12T13:10:31;2.08;;;1.27;;
46713;SDS011;32445;51.376;10.874;2022-09-12T13:13:40;4.40;;;1.50;;
46713;SDS011;32445;51.376;10.874;2022-09-12T13:16:58;1.30;;;1.10;;
46713;SDS011;32445;51.376;10.874;2022-09-12T13:23:20;1.50;;;1.40;;
46713;SDS011;32445;51.376;10.874;2022-09-12T13:26:25;1.80;;;1.30;;
46713;SDS011;32445;51.376;10.874;2022-09-12T13:29:26;6.27;;;1.20;;
46713;SDS011;32445;51.376;10.874;2022-09-12T13:32:27;2.35;;;1.58;;
46713;SDS011;32445;51.376;10.874;2022-09-12T13:35:37;1.37;;;1.00;;
46713;SDS011;32445;51.376;10.874;2022-09-12T13:45:31;1.95;;;1.08;;
46713;SDS011;32445;51.376;10.874;2022-09-12T13:48:37;3.17;;;1.23;;
46713;SDS011;32445;51.376;10.874;2022-09-12T13:51:38;1.67;;;1.30;;
46713;SDS011;32445;51.376;10.874;2022-09-12T13:54:39;1.85;;;1.30;;
46713;SDS011;32445;51.376;10.874;2022-09-12T13:57:40;1.95;;;1.45;;
46713;SDS011;32445;51.376;10.874;2022-09-12T14:00:41;1.67;;;1.42;;
46713;SDS011;32445;51.376;10.874;2022-09-12T14:07:23;3.72;;;1.10;;
46713;SDS011;32445;51.376;10.874;2022-09-12T14:10:32;2.00;;;1.13;;
46713;SDS011;32445;51.376;10.874;2022-09-12T14:13:36;2.08;;;1.00;;
46713;SDS011;32445;51.376;10.874;2022-09-12T14:16:38;2.00;;;1.08;;
46713;SDS011;32445;51.376;10.874;2022-09-12T14:19:39;1.02;;;0.93;;
46713;SDS011;32445;51.376;10.874;2022-09-12T14:22:42;1.60;;;1.13;;
46713;SDS011;32445;51.376;10.874;2022-09-12T14:25:42;3.50;;;1.02;;
46713;SDS011;32445;51.376;10.874;2022-09-12T14:28:46;1.42;;;0.85;;
46713;SDS011;32445;51.376;10.874;2022-09-12T14:35:12;5.05;;;1.13;;
46713;SDS011;32445;51.376;10.874;2022-09-12T14:38:20;1.63;;;1.00;;
46713;SDS011;32445;51.376;10.874;2022-09-12T14:41:28;1.33;;;1.20;;
46713;SDS011;32445;51.376;10.874;2022-09-12T14:44:31;3.30;;;1.13;;
46713;SDS011;32445;51.376;10.874;2022-09-12T14:47:35;1.02;;;1.00;;
46713;SDS011;32445;51.376;10.874;2022-09-12T14:50:39;1.00;;;0.90;;
46713;SDS011;32445;51.376;10.874;2022-09-12T14:53:45;1.15;;;1.05;;
46713;SDS011;32445;51.376;10.874;2022-09-12T14:56:57;3.20;;;0.88;;
46713;SDS011;32445;51.376;10.874;2022-09-12T15:03:21;1.38;;;0.90;;
46713;SDS011;32445;51.376;10.874;2022-09-12T15:09:27;2.08;;;1.30;;
46713;SDS011;32445;51.376;10.874;2022-09-12T15:12:27;1.15;;;0.70;;
46713;SDS011;32445;51.376;10.874;2022-09-12T15:18:28;0.93;;;0.80;;
46713;SDS011;32445;51.376;10.874;2022-09-12T15:24:29;1.33;;;0.80;;
46713;SDS011;32445;51.376;10.874;2022-09-12T15:30:29;1.53;;;0.77;;
46713;SDS011;32445;51.376;10.874;2022-09-12T15:36:30;1.47;;;1.23;;
46713;SDS011;32445;51.376;10.874;2022-09-12T15:42:31;1.10;;;0.77;;
46713;SDS011;32445;51.376;10.874;2022-09-12T15:48:32;1.40;;;1.00;;
46713;SDS011;32445;51.376;10.874;2022-09-12T15:54:33;2.17;;;0.90;;
46713;SDS011;32445;51.376;10.874;2022-09-12T15:57:35;1.27;;;0.70;;
46713;SDS011;32445;51.376;10.874;2022-09-12T16:03:35;1.52;;;0.80;;
46713;SDS011;32445;51.376;10.874;2022-09-12T16:09:36;1.03;;;0.93;;
46713;SDS011;32445;51.376;10.874;2022-09-12T16:12:36;1.58;;;0.70;;
46713;SDS011;32445;51.376;10.874;2022-09-12T16:15:37;1.02;;;0.93;;
46713;SDS011;32445;51.376;10.874;2022-09-12T16:18:40;1.60;;;0.90;;
46713;SDS011;32445;51.376;10.874;2022-09-12T16:21:41;2.30;;;0.70;;
46713;SDS011;32445;51.376;10.874;2022-09-12T16:27:41;1.47;;;0.90;;
46713;SDS011;32445;51.376;10.874;2022-09-12T16:33:53;0.97;;;0.67;;
46713;SDS011;32445;51.376;10.874;2022-09-12T16:39:54;0.80;;;0.60;;
46713;SDS011;32445;51.376;10.874;2022-09-12T16:46:02;0.73;;;0.70;;
46713;SDS011;32445;51.376;10.874;2022-09-12T16:49:03;0.60;;;0.60;;
46713;SDS011;32445;51.376;10.874;2022-09-12T16:52:05;0.88;;;0.70;;
46713;SDS011;32445;51.376;10.874;2022-09-12T16:58:06;1.80;;;1.07;;
46713;SDS011;32445;51.376;10.874;2022-09-12T17:04:11;1.00;;;0.80;;
46713;SDS011;32445;51.376;10.874;2022-09-12T17:07:12;0.75;;;0.75;;
46713;SDS011;32445;51.376;10.874;2022-09-12T17:10:13;2.67;;;1.17;;
46713;SDS011;32445;51.376;10.874;2022-09-12T17:13:14;1.27;;;0.80;;
46713;SDS011;32445;51.376;10.874;2022-09-12T17:19:16;1.05;;;0.70;;
46713;SDS011;32445;51.376;10.874;2022-09-12T17:22:18;0.55;;;0.55;;
46713;SDS011;32445;51.376;10.874;2022-09-12T17:25:18;1.57;;;0.77;;
46713;SDS011;32445;51.376;10.874;2022-09-12T17:31:19;1.20;;;1.00;;
46713;SDS011;32445;51.376;10.874;2022-09-12T17:34:20;1.30;;;0.60;;
46713;SDS011;32445;51.376;10.874;2022-09-12T17:37:20;2.93;;;1.00;;
46713;SDS011;32445;51.376;10.874;2022-09-12T17:40:20;1.27;;;1.10;;
46713;SDS011;32445;51.376;10.874;2022-09-12T17:43:21;2.77;;;1.00;;
46713;SDS011;32445;51.376;10.874;2022-09-12T17:46:22;2.03;;;0.97;;
46713;SDS011;32445;51.376;10.874;2022-09-12T17:49:25;2.85;;;0.80;;
46713;SDS011;32445;51.376;10.874;2022-09-12T17:52:25;2.63;;;1.10;;
46713;SDS011;32445;51.376;10.874;2022-09-12T17:55:26;2.75;;;0.80;;
46713;SDS011;32445;51.376;10.874;2022-09-12T17:58:31;7.07;;;1.85;;
46713;SDS011;32445;51.376;10.874;2022-09-12T18:01:32;2.90;;;0.90;;
46713;SDS011;32445;51.376;10.874;2022-09-12T18:04:52;1.02;;;0.73;;
46713;SDS011;32445;51.376;10.874;2022-09-12T18:07:52;3.40;;;1.00;;
46713;SDS011;32445;51.376;10.874;2022-09-12T18:10:52;1.00;;;0.83;;
46713;SDS011;32445;51.376;10.874;2022-09-12T18:13:52;2.50;;;0.70;;
46713;SDS011;32445;51.376;10.874;2022-09-12T18:16:53;0.70;;;0.70;;
46713;SDS011;32445;51.376;10.874;2022-09-12T18:19:56;1.90;;;1.00;;
46713;SDS011;32445;51.376;10.874;2022-09-12T18:22:56;2.73;;;0.83;;
46713;SDS011;32445;51.376;10.874;2022-09-12T18:25:57;1.30;;;0.77;;
46713;SDS011;32445;51.376;10.874;2022-09-12T18:29:02;2.15;;;0.80;;
46713;SDS011;32445;51.376;10.874;2022-09-12T18:32:03;1.30;;;0.80;;
46713;SDS011;32445;51.376;10.874;2022-09-12T18:35:04;1.97;;;0.90;;
46713;SDS011;32445;51.376;10.874;2022-09-12T18:38:05;0.73;;;0.70;;
46713;SDS011;32445;51.376;10.874;2022-09-12T18:41:19;2.20;;;0.90;;
46713;SDS011;32445;51.376;10.874;2022-09-12T18:44:21;4.60;;;1.08;;
46713;SDS011;32445;51.376;10.874;2022-09-12T18:47:21;1.30;;;0.77;;
46713;SDS011;32445;51.376;10.874;2022-09-12T18:50:22;1.95;;;0.98;;
46713;SDS011;32445;51.376;10.874;2022-09-12T18:53:23;2.03;;;0.95;;
46713;SDS011;32445;51.376;10.874;2022-09-12T18:56:25;1.25;;;0.98;;
46713;SDS011;32445;51.376;10.874;2022-09-12T18:59:27;1.20;;;1.10;;
46713;SDS011;32445;51.376;10.874;2022-09-12T19:02:28;2.70;;;1.10;;
46713;SDS011;32445;51.376;10.874;2022-09-12T19:05:28;1.20;;;1.10;;
46713;SDS011;32445;51.376;10.874;2022-09-12T19:08:28;2.57;;;0.90;;
46713;SDS011;32445;51.376;10.874;2022-09-12T19:11:29;4.80;;;1.20;;
46713;SDS011;32445;51.376;10.874;2022-09-12T19:14:29;3.10;;;1.57;;
46713;SDS011;32445;51.376;10.874;2022-09-12T19:17:29;2.53;;;1.73;;
46713;SDS011;32445;51.376;10.874;2022-09-12T19:20:30;3.03;;;1.30;;
46713;SDS011;32445;51.376;10.874;2022-09-12T19:23:30;2.67;;;1.50;;
46713;SDS011;32445;51.376;10.874;2022-09-12T19:26:33;1.98;;;1.67;;
46713;SDS011;32445;51.376;10.874;2022-09-12T19:29:33;1.58;;;1.05;;
46713;SDS011;32445;51.376;10.874;2022-09-12T19:32:33;3.33;;;1.43;;
46713;SDS011;32445;51.376;10.874;2022-09-12T19:35:34;2.53;;;1.93;;
46713;SDS011;32445;51.376;10.874;2022-09-12T19:38:34;2.90;;;1.83;;
46713;SDS011;32445;51.376;10.874;2022-09-12T19:41:35;3.30;;;1.35;;
46713;SDS011;32445;51.376;10.874;2022-09-12T19:44:35;4.33;;;1.53;;
46713;SDS011;32445;51.376;10.874;2022-09-12T19:47:35;5.13;;;1.63;;
46713;SDS011;32445;51.376;10.874;2022-09-12T19:50:36;2.37;;;1.33;;
46713;SDS011;32445;51.376;10.874;2022-09-12T19:53:36;1.73;;;1.33;;
46713;SDS011;32445;51.376;10.874;2022-09-12T19:56:39;1.63;;;1.30;;
46713;SDS011;32445;51.376;10.874;2022-09-12T19:59:40;2.90;;;1.77;;
46713;SDS011;32445;51.376;10.874;2022-09-12T20:02:40;1.60;;;1.50;;
46713;SDS011;32445;51.376;10.874;2022-09-12T20:05:40;4.70;;;1.43;;
46713;SDS011;32445;51.376;10.874;2022-09-12T20:08:41;1.87;;;1.47;;
46713;SDS011;32445;51.376;10.874;2022-09-12T20:11:42;2.78;;;1.65;;
46713;SDS011;32445;51.376;10.874;2022-09-12T20:14:43;1.30;;;1.20;;
46713;SDS011;32445;51.376;10.874;2022-09-12T20:17:43;1.70;;;1.40;;
46713;SDS011;32445;51.376;10.874;2022-09-12T20:20:43;2.50;;;1.30;;
46713;SDS011;32445;51.376;10.874;2022-09-12T20:23:44;2.57;;;1.97;;
46713;SDS011;32445;51.376;10.874;2022-09-12T20:26:45;2.78;;;1.10;;
46713;SDS011;32445;51.376;10.874;2022-09-12T20:29:45;1.67;;;1.57;;
46713;SDS011;32445;51.376;10.874;2022-09-12T20:32:46;2.30;;;1.40;;
46713;SDS011;32445;51.376;10.874;2022-09-12T20:35:46;2.40;;;1.73;;
46713;SDS011;32445;51.376;10.874;2022-09-12T20:38:49;1.70;;;1.60;;
46713;SDS011;32445;51.376;10.874;2022-09-12T20:41:51;2.47;;;1.35;;
46713;SDS011;32445;51.376;10.874;2022-09-12T20:44:51;2.00;;;1.50;;
46713;SDS011;32445;51.376;10.874;2022-09-12T20:47:52;1.23;;;1.13;;
46713;SDS011;32445;51.376;10.874;2022-09-12T20:50:56;1.95;;;1.75;;
46713;SDS011;32445;51.376;10.874;2022-09-12T20:54:00;2.13;;;1.50;;
46713;SDS011;32445;51.376;10.874;2022-09-12T20:57:02;3.63;;;1.50;;
46713;SDS011;32445;51.376;10.874;2022-09-12T21:00:03;2.03;;;1.50;;
46713;SDS011;32445;51.376;10.874;2022-09-12T21:03:05;2.08;;;1.23;;
46713;SDS011;32445;51.376;10.874;2022-09-12T21:09:08;2.22;;;1.35;;
46713;SDS011;32445;51.376;10.874;2022-09-12T21:12:08;2.63;;;2.03;;
46713;SDS011;32445;51.376;10.874;2022-09-12T21:15:08;2.90;;;1.87;;
46713;SDS011;32445;51.376;10.874;2022-09-12T21:18:09;2.00;;;1.80;;